Time;durP1;ratioP1;P1;durP2;ratioP2;P2;SDS_P1;SDS_P2;PMS_P1;PMS_P2;Temp;Humidity;BMP_temperature;BMP_pressure;BME280_temperature;BME280_humidity;BME280_pressure;Samples;Min_cycle;Max_cycle;Signal;HPM_P1;HPM_P2
2022/06/05 00:02:13;;;;;;;8.20;1.90;;;19.20;99.90;;;;;;4096105;29;20201;-51
2022/06/05 00:04:54;;;;;;;5.20;0.93;;;19.10;99.90;;;;;;4096168;29;20054;-50
2022/06/05 00:07:35;;;;;;;8.13;1.10;;;18.90;99.90;;;;;;4094728;29;20223;-51
2022/06/05 00:10:20;;;;;;;15.60;1.08;;;18.70;99.90;;;;;;4095131;29;20102;-51
2022/06/05 00:12:53;;;;;;;8.30;1.42;;;18.70;99.90;;;;;;4080152;29;20125;-51
2022/06/05 00:15:15;;;;;;;7.63;1.23;;;18.70;99.90;;;;;;4094538;29;20050;-50
2022/06/05 00:17:38;;;;;;;3.10;1.02;;;18.80;99.90;;;;;;4095308;28;20461;-51
2022/06/05 00:20:01;;;;;;;3.97;0.90;;;18.80;99.90;;;;;;4095808;29;20094;-52
2022/06/05 00:22:24;;;;;;;6.07;1.50;;;18.80;99.90;;;;;;4096088;29;20050;-52
2022/06/05 00:24:47;;;;;;;3.30;1.23;;;18.80;99.90;;;;;;4096026;29;20126;-51
2022/06/05 00:27:18;;;;;;;5.53;1.20;;;18.60;99.90;;;;;;4094282;29;20054;-50
2022/06/05 00:30:27;;;;;;;5.60;1.58;;;18.50;99.90;;;;;;4095721;29;20061;-50
2022/06/05 00:33:34;;;;;;;4.65;1.20;;;18.30;99.90;;;;;;4095380;29;20059;-50
2022/06/05 00:36:43;;;;;;;4.68;1.55;;;18.20;99.90;;;;;;4095533;29;20055;-52
2022/06/05 00:39:43;;;;;;;5.20;1.00;;;18.30;99.90;;;;;;4176597;28;20099;-52
2022/06/05 00:42:10;;;;;;;5.60;1.58;;;18.40;99.90;;;;;;4168051;28;20048;-51
2022/06/05 00:44:39;;;;;;;5.95;1.38;;;18.30;99.90;;;;;;4172664;28;20055;-51
2022/06/05 00:47:02;;;;;;;6.80;1.75;;;18.50;99.90;;;;;;4160261;28;20056;-52
2022/06/05 00:49:36;;;;;;;8.05;1.90;;;18.30;99.90;;;;;;4149613;28;20093;-51
2022/06/05 00:51:58;;;;;;;8.95;1.17;;;18.20;99.90;;;;;;4166015;28;20103;-50
2022/06/05 00:54:19;;;;;;;5.13;1.58;;;18.20;99.90;;;;;;4156548;28;20056;-49
2022/06/05 00:56:40;;;;;;;8.35;1.70;;;18.30;99.90;;;;;;4130949;28;20069;-51
2022/06/05 00:59:01;;;;;;;5.57;1.30;;;18.30;99.90;;;;;;4158777;28;20092;-52
2022/06/05 01:01:23;;;;;;;4.40;1.20;;;18.30;99.90;;;;;;4159898;28;20091;-51
2022/06/05 01:03:44;;;;;;;5.15;1.65;;;18.20;99.90;;;;;;4159984;28;20051;-51
2022/06/05 01:06:07;;;;;;;6.88;1.83;;;18.10;99.90;;;;;;4160068;28;20064;-49
2022/06/05 01:08:28;;;;;;;4.05;1.17;;;18.10;99.90;;;;;;4170405;28;20056;-51
2022/06/05 01:11:06;;;;;;;7.22;1.40;;;18.20;99.90;;;;;;4159616;28;20576;-50
2022/06/05 01:14:00;;;;;;;4.30;1.50;;;18.00;99.90;;;;;;4146587;28;20045;-48
2022/06/05 01:16:36;;;;;;;7.13;1.42;;;18.00;99.90;;;;;;4094831;29;20050;-49
2022/06/05 01:19:16;;;;;;;12.77;1.73;;;17.80;99.90;;;;;;4079282;29;20135;-50
2022/06/05 01:21:59;;;;;;;1.95;1.30;;;17.80;99.90;;;;;;4079571;29;20127;-51
2022/06/05 01:24:49;;;;;;;8.50;1.73;;;17.90;99.90;;;;;;4079329;29;20549;-50
2022/06/05 01:27:17;;;;;;;9.20;1.88;;;18.00;99.90;;;;;;4079101;29;20089;-51
2022/06/05 01:29:55;;;;;;;8.88;1.40;;;18.00;99.90;;;;;;4079493;29;20053;-51
2022/06/05 01:32:49;;;;;;;4.40;1.20;;;17.90;99.90;;;;;;4079406;29;20131;-45
2022/06/05 01:35:35;;;;;;;11.05;1.40;;;17.80;99.90;;;;;;4090388;28;20066;-51
2022/06/05 01:38:07;;;;;;;6.75;1.30;;;17.80;99.90;;;;;;4079099;29;20141;-51
2022/06/05 01:40:31;;;;;;;5.07;1.03;;;17.60;99.90;;;;;;4078898;29;20522;-51
2022/06/05 01:43:00;;;;;;;5.50;1.20;;;17.50;99.90;;;;;;4079939;29;20054;-51
2022/06/05 01:45:47;;;;;;;4.18;1.70;;;17.40;99.90;;;;;;4095386;29;20069;-51
2022/06/05 01:48:13;;;;;;;9.27;1.30;;;17.50;99.90;;;;;;4095672;28;20054;-51
2022/06/05 01:50:41;;;;;;;6.88;1.35;;;17.50;99.90;;;;;;4094368;29;20053;-51
2022/06/05 01:53:10;;;;;;;2.47;1.42;;;17.50;99.90;;;;;;4093577;29;20062;-50
2022/06/05 01:56:00;;;;;;;5.15;1.20;;;17.30;99.90;;;;;;4094838;29;20479;-50
2022/06/05 01:58:33;;;;;;;6.05;1.55;;;17.40;99.90;;;;;;4094523;29;20100;-51
2022/06/05 02:01:00;;;;;;;2.60;1.43;;;17.40;99.90;;;;;;4094015;29;20051;-51
2022/06/05 02:03:28;;;;;;;4.50;1.20;;;17.40;99.90;;;;;;4094366;29;20290;-51
2022/06/05 02:05:56;;;;;;;6.90;1.38;;;17.50;99.90;;;;;;4094825;29;20104;-51
2022/06/05 02:08:32;;;;;;;5.45;1.40;;;17.40;99.90;;;;;;4089261;29;20053;-49
2022/06/05 02:10:52;;;;;;;4.07;1.38;;;17.40;99.90;;;;;;4094471;29;20054;-50
2022/06/05 02:13:14;;;;;;;5.03;2.03;;;17.20;99.90;;;;;;4094739;29;20132;-51
2022/06/05 02:15:35;;;;;;;4.70;1.50;;;17.20;99.90;;;;;;4094535;29;20132;-51
2022/06/05 02:17:59;;;;;;;6.03;1.20;;;17.30;99.90;;;;;;4087238;28;20573;-50
2022/06/05 02:20:21;;;;;;;3.75;1.52;;;17.20;99.90;;;;;;4094078;29;20054;-50
2022/06/05 02:22:45;;;;;;;9.05;1.65;;;17.20;99.90;;;;;;4088721;29;20054;-49
2022/06/05 02:25:08;;;;;;;6.97;2.17;;;17.10;99.90;;;;;;4078476;29;20573;-51
2022/06/05 02:27:30;;;;;;;6.30;1.35;;;17.20;99.90;;;;;;4078448;29;20093;-51
2022/06/05 02:29:53;;;;;;;9.25;1.15;;;17.30;99.90;;;;;;4089602;29;20058;-51
2022/06/05 02:32:43;;;;;;;8.05;1.98;;;17.20;99.90;;;;;;4094522;29;20058;-51
2022/06/05 02:35:35;;;;;;;5.90;1.55;;;17.00;99.90;;;;;;4093802;29;20932;-50
2022/06/05 02:38:16;;;;;;;8.55;2.00;;;17.00;99.90;;;;;;4094163;29;20061;-51
2022/06/05 02:40:52;;;;;;;6.22;1.90;;;17.00;99.90;;;;;;4078510;29;20055;-49
2022/06/05 02:43:32;;;;;;;4.60;2.10;;;17.10;99.90;;;;;;4082151;29;20365;-48
2022/06/05 02:46:32;;;;;;;3.40;1.15;;;17.10;99.90;;;;;;4093976;29;20125;-50
2022/06/05 02:48:57;;;;;;;4.18;0.95;;;16.90;99.90;;;;;;4131017;28;20133;-50
2022/06/05 02:51:27;;;;;;;3.03;1.45;;;17.00;99.90;;;;;;4126022;28;20060;-51
2022/06/05 02:53:51;;;;;;;2.85;1.73;;;17.00;99.90;;;;;;4126196;28;20069;-50
2022/06/05 02:56:12;;;;;;;7.70;1.50;;;17.00;99.90;;;;;;4125851;28;20871;-50
2022/06/05 02:58:33;;;;;;;5.00;1.25;;;16.90;99.90;;;;;;4125881;28;20061;-49
2022/06/05 03:03:34;;;;;;;6.07;1.48;;;16.90;99.90;;;;;;4137022;28;20200;-51
2022/06/05 03:05:54;;;;;;;6.13;1.25;;;16.90;99.90;;;;;;4130032;28;20049;-48
2022/06/05 03:08:17;;;;;;;2.70;2.03;;;17.00;99.90;;;;;;4139901;28;20056;-49
2022/06/05 03:10:39;;;;;;;11.32;1.55;;;17.00;99.90;;;;;;4144879;28;20065;-52
2022/06/05 03:13:01;;;;;;;5.53;1.20;;;17.00;99.90;;;;;;4129034;28;20057;-51
2022/06/05 03:15:22;;;;;;;10.02;3.10;;;16.90;99.90;;;;;;4129003;28;20053;-50
2022/06/05 03:17:44;;;;;;;3.58;1.20;;;16.90;99.90;;;;;;4135111;28;20527;-50
2022/06/05 03:20:06;;;;;;;5.18;1.30;;;16.80;99.90;;;;;;4145195;28;20077;-51
2022/06/05 03:22:27;;;;;;;8.20;1.63;;;16.90;99.90;;;;;;4145411;28;20057;-51
2022/06/05 03:24:48;;;;;;;5.95;1.40;;;17.00;99.90;;;;;;4111977;28;20050;-50
2022/06/05 03:27:08;;;;;;;6.25;1.58;;;16.90;99.90;;;;;;4096439;29;20625;-51
2022/06/05 03:29:28;;;;;;;7.65;1.38;;;16.90;99.90;;;;;;4096777;29;20054;-50
2022/06/05 03:31:50;;;;;;;4.68;1.70;;;17.00;99.90;;;;;;4096540;29;20062;-51
2022/06/05 03:34:13;;;;;;;7.47;1.45;;;16.80;99.90;;;;;;4096127;29;20588;-49
2022/06/05 03:36:34;;;;;;;4.85;1.15;;;16.90;99.90;;;;;;4096370;29;20148;-51
2022/06/05 03:38:55;;;;;;;5.70;1.77;;;17.00;99.90;;;;;;4096844;29;20059;-51
2022/06/05 03:41:17;;;;;;;4.05;1.55;;;17.00;99.90;;;;;;4096238;29;20126;-50
2022/06/05 03:43:38;;;;;;;7.35;1.58;;;17.00;99.90;;;;;;4096168;29;20369;-50
2022/06/05 03:46:09;;;;;;;4.47;1.20;;;16.80;99.90;;;;;;4080326;29;20093;-50
2022/06/05 03:48:29;;;;;;;6.15;2.08;;;16.70;99.90;;;;;;4080526;29;20054;-49
2022/06/05 03:50:54;;;;;;;6.60;2.05;;;16.70;99.90;;;;;;4095046;29;20310;-51
2022/06/05 03:53:15;;;;;;;3.30;1.33;;;16.60;99.90;;;;;;4096214;29;20105;-51
2022/06/05 03:55:39;;;;;;;7.90;1.92;;;16.60;99.90;;;;;;4080371;29;20059;-51
2022/06/05 03:57:59;;;;;;;3.28;1.73;;;16.50;99.90;;;;;;4091446;29;20120;-51
2022/06/05 04:00:21;;;;;;;3.80;1.33;;;16.40;99.90;;;;;;4090833;29;20412;-51
2022/06/05 04:02:45;;;;;;;5.72;1.50;;;16.40;99.90;;;;;;4080490;29;20062;-50
2022/06/05 04:05:07;;;;;;;8.38;1.30;;;16.40;99.90;;;;;;4080321;29;20051;-49
2022/06/05 04:07:28;;;;;;;3.87;1.37;;;16.30;99.90;;;;;;4084798;29;20058;-50
2022/06/05 04:09:49;;;;;;;6.55;3.20;;;16.40;99.90;;;;;;4094960;29;20058;-51
2022/06/05 04:12:09;;;;;;;3.50;1.40;;;16.50;99.90;;;;;;4096386;29;20134;-49
2022/06/05 04:14:30;;;;;;;7.43;3.10;;;16.40;99.90;;;;;;4095725;29;20596;-49
2022/06/05 04:16:51;;;;;;;6.63;1.95;;;16.40;99.90;;;;;;4094635;28;20105;-51
2022/06/05 04:19:12;;;;;;;4.30;1.30;;;16.50;99.90;;;;;;4095967;29;20050;-48
2022/06/05 04:21:35;;;;;;;7.20;1.25;;;16.40;99.90;;;;;;4095828;29;20561;-50
2022/06/05 04:23:57;;;;;;;3.67;1.58;;;16.40;99.90;;;;;;4095795;29;20053;-49
2022/06/05 04:26:25;;;;;;;5.53;2.00;;;16.10;99.90;;;;;;4095778;29;20066;-51
2022/06/05 04:28:46;;;;;;;3.90;1.40;;;16.20;99.90;;;;;;4095849;29;20423;-50
2022/06/05 04:31:22;;;;;;;4.35;1.33;;;16.20;99.90;;;;;;4095946;29;20427;-49
2022/06/05 04:33:42;;;;;;;4.93;2.20;;;16.20;99.90;;;;;;4095754;29;20074;-50
2022/06/05 04:36:03;;;;;;;5.22;1.33;;;16.20;99.90;;;;;;4095358;29;20101;-50
2022/06/05 04:38:24;;;;;;;1.88;1.30;;;16.30;99.90;;;;;;4094661;29;20066;-51
2022/06/05 04:40:45;;;;;;;3.85;1.13;;;16.40;99.90;;;;;;4095249;29;20242;-50
2022/06/05 04:43:06;;;;;;;5.95;1.85;;;16.30;99.90;;;;;;4095479;29;20130;-51
2022/06/05 04:45:27;;;;;;;3.63;1.52;;;16.30;99.90;;;;;;4096017;29;20054;-48
2022/06/05 04:47:49;;;;;;;4.55;1.95;;;16.30;99.90;;;;;;4095658;29;20051;-51
2022/06/05 04:50:10;;;;;;;4.53;1.70;;;16.30;99.90;;;;;;4095688;29;20402;-50
2022/06/05 04:52:31;;;;;;;6.95;2.15;;;16.30;99.90;;;;;;4095919;29;20061;-51
2022/06/05 04:54:52;;;;;;;5.28;1.85;;;16.20;99.90;;;;;;4095101;29;20134;-50
2022/06/05 04:57:12;;;;;;;6.30;1.80;;;16.20;99.90;;;;;;4095155;29;20514;-50
2022/06/05 04:59:33;;;;;;;6.93;2.28;;;16.30;99.90;;;;;;4095259;29;20054;-51
2022/06/05 05:01:53;;;;;;;7.05;2.42;;;16.70;99.90;;;;;;4095240;29;20097;-51
2022/06/05 05:04:15;;;;;;;4.47;2.20;;;16.90;99.90;;;;;;4095270;29;20061;-49
2022/06/05 05:06:36;;;;;;;9.30;1.40;;;17.10;99.90;;;;;;4095372;29;20135;-52
2022/06/05 05:08:58;;;;;;;1.88;1.27;;;17.20;99.90;;;;;;4081438;29;20051;-50
2022/06/05 05:11:20;;;;;;;1.50;1.40;;;17.30;99.90;;;;;;4122674;28;20522;-52
2022/06/05 05:13:41;;;;;;;4.78;1.63;;;17.20;99.90;;;;;;4105601;28;20152;-50
2022/06/05 05:16:03;;;;;;;5.03;1.70;;;17.20;99.90;;;;;;4094907;29;20046;-49
2022/06/05 05:18:25;;;;;;;4.65;1.35;;;17.10;99.90;;;;;;4094750;28;20139;-51
2022/06/05 05:20:46;;;;;;;6.85;1.88;;;17.20;99.90;;;;;;4095274;29;20134;-48
2022/06/05 05:23:07;;;;;;;8.70;1.40;;;17.10;99.90;;;;;;4094964;29;20125;-51
2022/06/05 05:25:28;;;;;;;2.83;1.92;;;17.10;99.90;;;;;;4094972;29;20058;-50
2022/06/05 05:27:49;;;;;;;7.45;2.08;;;17.10;99.90;;;;;;4094631;28;20049;-51
2022/06/05 05:30:12;;;;;;;4.55;1.52;;;17.20;99.90;;;;;;4078164;29;20494;-50
2022/06/05 05:32:34;;;;;;;9.05;1.85;;;17.00;99.90;;;;;;4090935;29;20057;-50
2022/06/05 05:34:57;;;;;;;9.50;2.35;;;16.90;99.90;;;;;;4094758;29;20434;-51
2022/06/05 05:37:18;;;;;;;5.78;1.90;;;16.90;99.90;;;;;;4095258;29;20533;-52
2022/06/05 05:42:30;;;;;;;3.17;1.77;;;17.10;99.90;;;;;;4167802;28;20468;-51
2022/06/05 05:44:51;;;;;;;8.13;1.25;;;17.30;99.90;;;;;;4079028;29;20103;-50
2022/06/05 05:47:15;;;;;;;10.35;1.40;;;17.40;99.90;;;;;;4079208;29;20521;-51
2022/06/05 05:49:36;;;;;;;5.13;2.38;;;17.50;99.90;;;;;;4082990;29;20117;-50
2022/06/05 05:51:56;;;;;;;2.53;1.20;;;17.60;99.90;;;;;;4094537;29;20051;-50
2022/06/05 05:54:17;;;;;;;6.18;2.50;;;17.70;99.90;;;;;;4094714;29;20082;-48
2022/06/05 05:56:39;;;;;;;2.47;1.20;;;17.70;99.90;;;;;;4094744;29;20410;-51
2022/06/05 05:59:00;;;;;;;7.75;1.80;;;17.80;99.90;;;;;;4094616;29;20077;-51
2022/06/05 06:01:24;;;;;;;4.75;1.10;;;17.80;99.90;;;;;;4094844;29;20130;-49
2022/06/05 06:03:45;;;;;;;8.75;1.95;;;17.80;99.90;;;;;;4094917;29;20109;-52
2022/06/05 06:06:06;;;;;;;8.40;1.42;;;17.80;99.90;;;;;;4094579;29;20101;-50
2022/06/05 06:08:27;;;;;;;12.40;1.85;;;17.90;99.90;;;;;;4094846;29;20124;-51
2022/06/05 06:10:49;;;;;;;6.28;1.50;;;17.90;99.90;;;;;;4094572;29;20121;-50
2022/06/05 06:13:10;;;;;;;6.40;1.80;;;17.90;99.90;;;;;;4094270;29;20509;-51
2022/06/05 06:15:31;;;;;;;2.63;1.65;;;17.90;99.90;;;;;;4093092;29;20062;-51
2022/06/05 06:17:52;;;;;;;6.63;1.95;;;18.10;99.90;;;;;;4092048;28;20176;-50
2022/06/05 06:20:12;;;;;;;6.57;1.75;;;18.10;99.90;;;;;;4094751;29;20050;-52
2022/06/05 06:22:35;;;;;;;4.85;1.30;;;18.10;99.90;;;;;;4094416;29;20046;-49
2022/06/05 06:24:56;;;;;;;;;;;18.10;99.90;;;;;;4094947;29;20054;-51
2022/06/05 06:27:17;;;;;;;7.13;1.55;;;18.20;99.90;;;;;;4092238;29;20551;-51
2022/06/05 06:29:38;;;;;;;5.57;1.65;;;18.20;99.90;;;;;;4094270;29;20062;-50
2022/06/05 06:31:59;;;;;;;3.47;1.92;;;18.30;99.90;;;;;;4093043;29;20057;-49
2022/06/05 06:34:20;;;;;;;6.47;1.25;;;18.30;99.90;;;;;;4094105;29;20109;-50
2022/06/05 06:36:41;;;;;;;4.45;1.17;;;18.30;99.90;;;;;;4094658;29;20062;-51
2022/06/05 06:39:13;;;;;;;4.45;1.10;;;18.40;99.90;;;;;;4093405;29;20050;-51
2022/06/05 06:41:34;;;;;;;25.48;4.72;;;18.40;99.90;;;;;;4102604;28;20058;-52
2022/06/05 06:43:55;;;;;;;25.52;6.07;;;18.40;99.90;;;;;;4094134;29;20452;-51
2022/06/05 06:46:17;;;;;;;147.50;34.70;;;18.40;99.90;;;;;;4093693;29;20456;-51
2022/06/05 06:48:38;;;;;;;6.25;1.63;;;18.30;99.90;;;;;;4078342;29;20061;-51
2022/06/05 06:50:59;;;;;;;73.50;15.93;;;18.50;99.90;;;;;;4093199;29;20403;-50
2022/06/05 06:53:21;;;;;;;12.10;2.63;;;18.60;99.90;;;;;;4094322;29;20062;-51
2022/06/05 06:55:41;;;;;;;8.85;1.48;;;18.80;99.90;;;;;;4093280;29;20591;-51
2022/06/05 06:58:03;;;;;;;4.82;1.63;;;19.00;99.90;;;;;;4094081;29;20082;-51
2022/06/05 07:00:24;;;;;;;8.50;1.40;;;19.10;99.90;;;;;;4094379;29;20413;-50
2022/06/05 07:02:45;;;;;;;5.80;1.10;;;19.20;99.90;;;;;;4093873;29;20436;-51
2022/06/05 07:05:06;;;;;;;5.22;1.55;;;19.30;99.90;;;;;;4093888;29;20066;-52
2022/06/05 07:07:26;;;;;;;7.47;1.60;;;19.30;99.90;;;;;;4098964;28;20058;-49
2022/06/05 07:09:47;;;;;;;8.90;1.45;;;19.50;99.90;;;;;;4090970;29;20057;-51
2022/06/05 07:12:08;;;;;;;7.07;1.20;;;19.70;99.90;;;;;;4155777;28;20090;-51
2022/06/05 07:14:30;;;;;;;142.23;31.55;;;19.80;99.90;;;;;;4177211;28;20126;-50
2022/06/05 07:16:53;;;;;;;83.37;13.00;;;20.00;99.90;;;;;;4173849;28;20114;-51
2022/06/05 07:19:14;;;;;;;26.92;4.63;;;20.10;99.90;;;;;;4093907;29;20100;-51
2022/06/05 07:21:38;;;;;;;29.98;5.82;;;20.30;99.90;;;;;;4093685;29;20050;-52
2022/06/05 07:23:59;;;;;;;3.97;1.02;;;20.50;99.90;;;;;;4093613;29;20050;-52
2022/06/05 07:26:22;;;;;;;4.88;1.02;;;20.60;99.90;;;;;;4093703;29;20425;-51
2022/06/05 07:28:43;;;;;;;;;;;20.60;99.90;;;;;;4094272;29;20077;-50
2022/06/05 07:31:05;;;;;;;4.90;2.38;;;20.80;99.90;;;;;;4093969;29;20375;-51
2022/06/05 07:33:27;;;;;;;8.88;1.08;;;21.10;99.90;;;;;;4092935;29;20062;-50
2022/06/05 07:35:56;;;;;;;2.78;1.10;;;21.20;99.90;;;;;;4093630;29;20062;-47
2022/06/05 07:38:16;;;;;;;5.18;1.10;;;21.20;99.90;;;;;;4093592;29;20109;-51
2022/06/05 07:40:42;;;;;;;4.85;1.30;;;21.30;99.90;;;;;;4093749;29;20093;-51
2022/06/05 07:43:03;;;;;;;3.10;0.90;;;21.30;99.90;;;;;;4092003;29;20054;-50
2022/06/05 07:45:24;;;;;;;7.78;1.73;;;21.30;99.90;;;;;;4092954;29;20097;-51
2022/06/05 07:47:49;;;;;;;7.35;1.60;;;21.30;99.90;;;;;;4093661;29;20566;-52
2022/06/05 07:50:12;;;;;;;4.88;0.95;;;21.30;99.90;;;;;;4094163;28;20050;-50
2022/06/05 07:55:12;;;;;;;1.88;0.90;;;21.60;99.90;;;;;;4094764;29;20085;-50
2022/06/05 07:57:33;;;;;;;10.13;1.52;;;21.70;99.90;;;;;;4094426;29;20089;-52
2022/06/05 07:59:54;;;;;;;3.58;0.85;;;21.70;99.90;;;;;;4080852;29;20093;-49
2022/06/05 08:02:20;;;;;;;5.30;0.90;;;21.70;99.90;;;;;;4080680;29;20458;-52
2022/06/05 08:04:42;;;;;;;9.18;1.20;;;21.70;99.90;;;;;;4078987;29;20063;-52
2022/06/05 08:07:05;;;;;;;11.57;1.13;;;21.90;99.90;;;;;;4081320;29;20198;-51
2022/06/05 08:09:27;;;;;;;2.92;1.80;;;22.00;99.90;;;;;;4096415;29;20054;-51
2022/06/05 08:11:48;;;;;;;6.20;1.40;;;22.10;99.90;;;;;;4095950;29;20445;-51
2022/06/05 08:14:10;;;;;;;3.65;1.15;;;22.30;99.90;;;;;;4096195;29;20112;-51
2022/06/05 08:16:32;;;;;;;6.25;1.08;;;22.30;99.90;;;;;;4095856;29;20097;-49
2022/06/05 08:18:54;;;;;;;9.30;0.90;;;22.40;99.90;;;;;;4095909;29;20054;-51
2022/06/05 08:21:15;;;;;;;8.93;1.35;;;22.50;99.90;;;;;;4096023;29;20055;-51
2022/06/05 08:23:36;;;;;;;6.57;1.27;;;22.50;99.90;;;;;;4095988;29;20155;-51
2022/06/05 08:26:01;;;;;;;7.20;1.35;;;22.60;99.90;;;;;;4096117;29;20450;-51
2022/06/05 08:28:25;;;;;;;7.72;1.27;;;22.70;99.90;;;;;;4095946;29;20259;-51
2022/06/05 08:30:46;;;;;;;5.50;1.10;;;22.80;99.90;;;;;;4096037;29;20082;-46
2022/06/05 08:33:07;;;;;;;4.85;1.17;;;23.10;99.90;;;;;;4096112;29;20066;-51
2022/06/05 08:35:27;;;;;;;3.50;0.95;;;23.00;99.90;;;;;;4094299;29;20070;-51
2022/06/05 08:43:19;;;;;;;3.85;0.77;;;23.50;99.90;;;;;;4095780;29;20092;-50
2022/06/05 08:46:00;;;;;;;3.58;0.90;;;23.50;99.90;;;;;;4092795;29;20054;-51
2022/06/05 08:48:28;;;;;;;3.50;0.70;;;24.00;99.90;;;;;;4079725;29;20066;-51
2022/06/05 08:50:52;;;;;;;8.68;0.70;;;24.30;99.90;;;;;;4093419;29;20066;-51
2022/06/05 08:53:19;;;;;;;3.67;0.70;;;24.60;99.90;;;;;;4095585;29;20054;-52
2022/06/05 08:55:42;;;;;;;3.95;1.52;;;24.60;99.90;;;;;;4095628;29;20317;-50
2022/06/05 08:58:25;;;;;;;9.63;1.15;;;24.70;99.90;;;;;;4095286;29;20053;-51
2022/06/05 09:00:50;;;;;;;3.65;0.68;;;25.20;99.90;;;;;;4079410;29;20129;-47
2022/06/05 09:03:34;;;;;;;10.98;0.70;;;25.20;99.90;;;;;;4093484;28;20054;-50
2022/06/05 09:06:22;;;;;;;4.22;0.70;;;25.40;99.90;;;;;;4083967;29;20058;-48
2022/06/05 09:08:44;;;;;;;6.60;0.77;;;26.10;99.90;;;;;;4091053;29;20073;-50
2022/06/05 09:11:12;;;;;;;18.25;1.15;;;25.90;99.90;;;;;;4103685;28;20284;-51
2022/06/05 09:13:50;;;;;;;1.40;0.55;;;26.20;99.90;;;;;;4093490;29;20062;-51
2022/06/05 09:16:22;;;;;;;2.50;0.63;;;26.50;99.90;;;;;;4084914;29;20054;-51
2022/06/05 09:18:48;;;;;;;10.23;0.70;;;26.90;99.90;;;;;;4092283;28;20079;-52
2022/06/05 09:21:11;;;;;;;3.28;0.55;;;27.10;99.90;;;;;;4093688;29;20085;-51
2022/06/05 09:23:51;;;;;;;8.60;0.70;;;27.20;99.90;;;;;;4091625;29;20127;-50
2022/06/05 09:26:13;;;;;;;5.82;0.50;;;27.50;99.90;;;;;;4081888;29;20058;-52
2022/06/05 09:28:50;;;;;;;2.70;0.70;;;27.70;99.90;;;;;;4090943;29;20055;-51
2022/06/05 09:31:26;;;;;;;4.35;0.68;;;27.90;99.90;;;;;;4086205;29;20134;-50
2022/06/05 09:33:51;;;;;;;9.93;0.80;;;28.10;99.90;;;;;;4085066;29;20086;-50
2022/06/05 09:36:17;;;;;;;3.33;0.60;;;28.20;99.90;;;;;;4088910;29;20074;-51
2022/06/05 09:38:49;;;;;;;3.75;1.00;;;28.20;99.70;;;;;;4091818;29;20082;-49
2022/06/05 09:41:47;;;;;;;5.75;0.70;;;28.00;99.30;;;;;;4085260;28;20260;-51
2022/06/05 09:44:14;;;;;;;3.88;0.93;;;27.70;99.90;;;;;;4091044;29;20114;-50
2022/06/05 09:46:38;;;;;;;5.18;0.80;;;28.00;99.70;;;;;;4084796;29;20089;-51
2022/06/05 09:49:08;;;;;;;3.88;0.70;;;27.80;98.90;;;;;;4088383;29;20433;-51
2022/06/05 09:51:29;;;;;;;3.20;0.50;;;28.10;98.60;;;;;;4092905;29;20078;-51
2022/06/05 09:54:00;;;;;;;3.33;0.70;;;28.30;97.50;;;;;;4079961;29;20062;-49
2022/06/05 09:59:44;;;;;;;5.82;0.60;;;28.30;95.70;;;;;;4107188;28;20138;-51
2022/06/05 10:02:07;;;;;;;1.98;0.50;;;28.40;95.30;;;;;;4080531;29;20155;-51
2022/06/05 10:04:31;;;;;;;4.05;0.40;;;28.20;95.20;;;;;;4088147;29;20131;-49
2022/06/05 10:07:30;;;;;;;3.50;0.50;;;28.50;94.50;;;;;;4081005;29;20043;-51
2022/06/05 10:09:51;;;;;;;3.45;0.47;;;28.40;93.70;;;;;;4094039;29;20053;-50
2022/06/05 10:12:33;;;;;;;1.48;0.50;;;28.30;93.30;;;;;;4127338;28;20085;-51
2022/06/05 10:15:24;;;;;;;5.72;1.25;;;28.20;93.10;;;;;;4093280;28;20058;-50
2022/06/05 10:17:53;;;;;;;1.42;0.40;;;28.20;92.20;;;;;;4093981;28;20093;-49
2022/06/05 10:20:15;;;;;;;2.63;0.40;;;28.30;92.20;;;;;;4078767;29;20059;-50
2022/06/05 10:22:40;;;;;;;5.75;0.60;;;28.30;91.60;;;;;;4090899;29;20069;-52
2022/06/05 10:25:07;;;;;;;4.82;0.40;;;28.20;91.60;;;;;;4093974;29;20112;-50
2022/06/05 10:27:29;;;;;;;1.42;0.50;;;27.80;91.40;;;;;;4087422;29;20676;-50
2022/06/05 10:29:55;;;;;;;1.05;0.60;;;27.60;91.40;;;;;;4093968;29;20528;-51
2022/06/05 10:32:32;;;;;;;9.45;1.30;;;27.30;91.80;;;;;;4085228;29;20124;-51
2022/06/05 10:35:11;;;;;;;6.03;0.85;;;27.20;92.60;;;;;;4091906;29;20513;-51
2022/06/05 10:37:49;;;;;;;5.43;0.50;;;27.20;92.40;;;;;;4094060;29;20054;-50
2022/06/05 10:40:32;;;;;;;2.53;0.55;;;27.20;92.80;;;;;;4087935;29;20106;-51
2022/06/05 10:43:04;;;;;;;4.40;0.65;;;27.00;92.90;;;;;;4085777;29;20049;-51
2022/06/05 10:45:39;;;;;;;3.73;0.60;;;27.00;92.10;;;;;;4088999;29;20120;-50
2022/06/05 10:48:20;;;;;;;0.50;0.40;;;27.10;93.00;;;;;;4090491;29;20074;-49
2022/06/05 10:51:12;;;;;;;3.17;0.50;;;27.30;92.80;;;;;;4093856;29;20074;-51
2022/06/05 10:53:52;;;;;;;5.70;0.50;;;27.50;93.20;;;;;;4092124;28;20066;-50
2022/06/05 10:56:22;;;;;;;2.17;0.40;;;27.60;92.80;;;;;;4093853;29;20070;-51
2022/06/05 10:58:51;;;;;;;3.63;0.43;;;27.90;92.80;;;;;;4086716;29;20571;-52
2022/06/05 11:01:35;;;;;;;5.32;0.50;;;27.90;92.70;;;;;;4086489;29;20536;-52
2022/06/05 11:04:09;;;;;;;0.88;0.50;;;27.90;92.90;;;;;;4083466;29;20415;-51
2022/06/05 11:06:39;;;;;;;4.05;0.68;;;27.60;91.70;;;;;;4088474;29;20100;-52
2022/06/05 11:09:37;;;;;;;5.63;0.50;;;27.30;92.20;;;;;;4077683;29;20426;-50
2022/06/05 11:15:12;;;;;;;0.50;0.40;;;27.50;92.60;;;;;;4079016;29;20066;-50
2022/06/05 11:18:04;;;;;;;3.65;0.50;;;27.60;93.80;;;;;;4086723;28;20050;-52
2022/06/05 11:20:26;;;;;;;0.80;0.52;;;27.30;92.80;;;;;;4082044;29;20133;-51
2022/06/05 11:23:03;;;;;;;4.15;0.50;;;27.30;93.10;;;;;;4079431;29;20051;-51
2022/06/05 11:25:27;;;;;;;2.88;1.02;;;27.40;93.00;;;;;;4081815;29;20542;-51
2022/06/05 11:28:12;;;;;;;6.90;0.50;;;27.60;92.70;;;;;;4083815;29;20517;-51
2022/06/05 11:30:51;;;;;;;1.60;0.43;;;27.90;93.70;;;;;;4088019;29;20525;-50
2022/06/05 11:33:23;;;;;;;3.08;0.40;;;27.70;92.00;;;;;;4094384;29;20586;-50
2022/06/05 11:36:05;;;;;;;2.75;0.50;;;27.60;92.00;;;;;;4089042;28;20422;-49
2022/06/05 11:38:43;;;;;;;3.25;0.50;;;27.60;91.10;;;;;;4090094;29;20098;-50
2022/06/05 11:41:26;;;;;;;1.55;0.52;;;27.60;91.90;;;;;;4089211;29;20565;-51
2022/06/05 11:43:55;;;;;;;5.22;0.50;;;27.70;92.00;;;;;;4120481;28;20062;-51
2022/06/05 11:46:37;;;;;;;3.67;0.50;;;27.70;90.80;;;;;;4080602;29;20168;-51
2022/06/05 11:49:25;;;;;;;2.45;0.50;;;27.60;90.70;;;;;;4083676;29;20075;-49
2022/06/05 11:51:46;;;;;;;0.70;0.40;;;27.60;91.60;;;;;;4089185;29;20497;-51
2022/06/05 11:54:29;;;;;;;2.35;0.50;;;27.60;90.20;;;;;;4091530;29;20082;-51
2022/06/05 11:57:14;;;;;;;2.03;0.40;;;28.20;90.90;;;;;;4080968;29;20117;-51
2022/06/05 11:59:40;;;;;;;2.72;0.50;;;28.40;89.50;;;;;;4095068;29;20082;-51
2022/06/05 12:02:13;;;;;;;2.67;0.40;;;28.80;90.30;;;;;;4093598;29;20155;-51
2022/06/05 12:04:53;;;;;;;2.30;0.40;;;28.90;90.30;;;;;;4091969;29;20138;-51
2022/06/05 12:07:14;;;;;;;5.75;0.60;;;28.80;88.00;;;;;;4080135;29;20585;-51
2022/06/05 12:09:48;;;;;;;4.30;0.60;;;28.60;89.30;;;;;;4086288;29;20054;-51
2022/06/05 12:12:35;;;;;;;2.38;0.80;;;28.50;90.10;;;;;;4157655;28;20060;-49
2022/06/05 12:15:23;;;;;;;5.63;0.50;;;28.50;90.40;;;;;;4116858;28;20410;-50
2022/06/05 12:17:49;;;;;;;1.98;0.40;;;28.40;88.70;;;;;;4093716;28;20426;-51
2022/06/05 12:20:19;;;;;;;3.55;0.40;;;28.40;90.40;;;;;;4093244;29;20066;-51
2022/06/05 12:22:50;;;;;;;1.98;0.55;;;28.50;90.50;;;;;;4088105;29;20061;-51
2022/06/05 12:25:38;;;;;;;3.60;0.57;;;28.60;89.00;;;;;;4084151;29;20046;-49
2022/06/05 12:28:20;;;;;;;4.28;0.65;;;28.80;89.60;;;;;;4089248;29;20101;-50
2022/06/05 12:31:03;;;;;;;1.10;0.40;;;29.00;89.70;;;;;;4084820;29;20098;-52
2022/06/05 12:33:23;;;;;;;;;;;29.00;90.00;;;;;;4092826;29;20050;-51
2022/06/05 12:35:49;;;;;;;6.80;0.73;;;29.00;86.40;;;;;;4091006;29;20001;-52
2022/06/05 12:38:28;;;;;;;6.72;0.90;;;29.20;89.30;;;;;;4095303;28;20265;-52
2022/06/05 12:41:02;;;;;;;3.85;0.65;;;29.10;89.20;;;;;;4083991;29;20147;-50
2022/06/05 12:43:28;;;;;;;11.75;0.82;;;29.20;87.40;;;;;;4093408;29;20398;-50
2022/06/05 12:45:56;;;;;;;4.78;0.55;;;29.20;89.90;;;;;;4093641;29;20542;-49
2022/06/05 12:48:22;;;;;;;1.92;0.52;;;29.30;91.10;;;;;;4088368;29;20410;-51
2022/06/05 12:51:04;;;;;;;6.85;0.68;;;29.60;90.80;;;;;;4090532;29;20133;-50
2022/06/05 12:53:29;;;;;;;;;;;29.80;90.80;;;;;;4083603;29;20149;-51
2022/06/05 12:55:56;;;;;;;9.85;1.05;;;29.90;92.40;;;;;;4085145;29;20008;-50
2022/06/05 12:58:37;;;;;;;2.75;0.40;;;29.70;88.30;;;;;;4093172;29;20509;-51
2022/06/05 13:01:02;;;;;;;7.10;0.50;;;29.50;89.30;;;;;;4090351;29;20113;-51
2022/06/05 13:04:00;;;;;;;5.38;0.50;;;29.30;86.40;;;;;;4087189;29;20139;-51
2022/06/05 13:06:32;;;;;;;4.25;0.68;;;29.40;90.90;;;;;;4091063;29;20093;-50
2022/06/05 13:09:05;;;;;;;3.53;0.57;;;29.70;88.00;;;;;;4092125;29;20470;-50
2022/06/05 13:11:28;;;;;;;5.00;0.50;;;29.60;89.50;;;;;;4119919;28;20052;-50
2022/06/05 13:14:13;;;;;;;1.48;0.50;;;29.70;88.30;;;;;;4092248;29;20097;-50